sensor_id;sensor_type;location;lat;lon;timestamp;P1;durP1;ratioP1;P2;durP2;ratioP2
55647;SDS011;45266;48.756;9.246;2024-02-04T00:01:55;2.27;;;2.00;;
55647;SDS011;45266;48.756;9.246;2024-02-04T00:06:57;3.70;;;2.07;;
55647;SDS011;45266;48.756;9.246;2024-02-04T00:11:58;2.10;;;1.80;;
55647;SDS011;45266;48.756;9.246;2024-02-04T00:17:04;5.07;;;2.80;;
55647;SDS011;45266;48.756;9.246;2024-02-04T00:22:06;2.33;;;2.00;;
55647;SDS011;45266;48.756;9.246;2024-02-04T00:27:08;3.13;;;1.60;;
55647;SDS011;45266;48.756;9.246;2024-02-04T00:32:10;4.23;;;1.17;;
55647;SDS011;45266;48.756;9.246;2024-02-04T00:37:12;0.93;;;0.83;;
55647;SDS011;45266;48.756;9.246;2024-02-04T00:42:14;1.67;;;0.90;;
55647;SDS011;45266;48.756;9.246;2024-02-04T00:47:15;1.35;;;1.15;;
55647;SDS011;45266;48.756;9.246;2024-02-04T00:52:17;1.10;;;0.70;;
55647;SDS011;45266;48.756;9.246;2024-02-04T00:57:19;1.10;;;1.03;;
55647;SDS011;45266;48.756;9.246;2024-02-04T01:02:21;1.20;;;0.60;;
55647;SDS011;45266;48.756;9.246;2024-02-04T01:07:23;0.93;;;0.80;;
55647;SDS011;45266;48.756;9.246;2024-02-04T01:12:25;0.70;;;0.60;;
55647;SDS011;45266;48.756;9.246;2024-02-04T01:17:27;0.60;;;0.60;;
55647;SDS011;45266;48.756;9.246;2024-02-04T01:22:28;1.13;;;0.50;;
55647;SDS011;45266;48.756;9.246;2024-02-04T01:27:31;0.70;;;0.70;;
55647;SDS011;45266;48.756;9.246;2024-02-04T01:32:33;0.60;;;0.60;;
55647;SDS011;45266;48.756;9.246;2024-02-04T01:37:34;2.57;;;1.20;;
55647;SDS011;45266;48.756;9.246;2024-02-04T01:42:36;1.40;;;1.00;;
55647;SDS011;45266;48.756;9.246;2024-02-04T01:47:39;0.80;;;0.80;;
55647;SDS011;45266;48.756;9.246;2024-02-04T01:52:41;1.00;;;0.80;;
55647;SDS011;45266;48.756;9.246;2024-02-04T01:57:45;1.13;;;1.03;;
55647;SDS011;45266;48.756;9.246;2024-02-04T02:02:51;1.90;;;0.80;;
55647;SDS011;45266;48.756;9.246;2024-02-04T02:07:53;0.60;;;0.50;;
55647;SDS011;45266;48.756;9.246;2024-02-04T02:12:58;0.73;;;0.73;;
55647;SDS011;45266;48.756;9.246;2024-02-04T02:23:34;0.60;;;0.57;;
55647;SDS011;45266;48.756;9.246;2024-02-04T02:28:42;1.43;;;1.33;;
55647;SDS011;45266;48.756;9.246;2024-02-04T02:33:43;1.10;;;0.70;;
55647;SDS011;45266;48.756;9.246;2024-02-04T02:38:52;1.13;;;0.90;;
55647;SDS011;45266;48.756;9.246;2024-02-04T02:44:06;1.20;;;0.80;;
55647;SDS011;45266;48.756;9.246;2024-02-04T02:49:09;2.70;;;0.97;;
55647;SDS011;45266;48.756;9.246;2024-02-04T02:54:11;1.20;;;0.87;;
55647;SDS011;45266;48.756;9.246;2024-02-04T02:59:13;1.13;;;1.00;;
55647;SDS011;45266;48.756;9.246;2024-02-04T03:04:15;2.40;;;0.67;;
55647;SDS011;45266;48.756;9.246;2024-02-04T03:09:17;1.33;;;0.90;;
55647;SDS011;45266;48.756;9.246;2024-02-04T03:14:19;0.70;;;0.50;;
55647;SDS011;45266;48.756;9.246;2024-02-04T03:19:21;0.83;;;0.60;;
55647;SDS011;45266;48.756;9.246;2024-02-04T03:24:23;0.80;;;0.80;;
55647;SDS011;45266;48.756;9.246;2024-02-04T03:29:25;1.00;;;0.80;;
55647;SDS011;45266;48.756;9.246;2024-02-04T03:34:27;8.53;;;1.00;;
55647;SDS011;45266;48.756;9.246;2024-02-04T03:39:29;0.73;;;0.73;;
55647;SDS011;45266;48.756;9.246;2024-02-04T03:44:31;0.60;;;0.50;;
55647;SDS011;45266;48.756;9.246;2024-02-04T03:49:33;1.53;;;0.90;;
55647;SDS011;45266;48.756;9.246;2024-02-04T03:54:34;1.37;;;1.10;;
55647;SDS011;45266;48.756;9.246;2024-02-04T03:59:36;0.90;;;0.80;;
55647;SDS011;45266;48.756;9.246;2024-02-04T04:04:41;0.80;;;0.70;;
55647;SDS011;45266;48.756;9.246;2024-02-04T04:09:44;1.57;;;0.93;;
55647;SDS011;45266;48.756;9.246;2024-02-04T04:14:46;2.57;;;0.90;;
55647;SDS011;45266;48.756;9.246;2024-02-04T04:19:48;0.80;;;0.80;;
55647;SDS011;45266;48.756;9.246;2024-02-04T04:24:52;1.10;;;0.80;;
55647;SDS011;45266;48.756;9.246;2024-02-04T04:29:53;1.33;;;0.93;;
55647;SDS011;45266;48.756;9.246;2024-02-04T04:34:55;1.00;;;1.00;;
55647;SDS011;45266;48.756;9.246;2024-02-04T04:39:57;0.90;;;0.53;;
55647;SDS011;45266;48.756;9.246;2024-02-04T04:44:59;0.80;;;0.80;;
55647;SDS011;45266;48.756;9.246;2024-02-04T04:50:01;1.70;;;0.63;;
55647;SDS011;45266;48.756;9.246;2024-02-04T04:55:03;0.60;;;0.60;;
55647;SDS011;45266;48.756;9.246;2024-02-04T05:00:05;0.63;;;0.50;;
55647;SDS011;45266;48.756;9.246;2024-02-04T05:05:11;0.90;;;0.80;;
55647;SDS011;45266;48.756;9.246;2024-02-04T05:10:13;1.07;;;0.70;;
55647;SDS011;45266;48.756;9.246;2024-02-04T05:15:15;0.87;;;0.47;;
55647;SDS011;45266;48.756;9.246;2024-02-04T05:20:17;0.80;;;0.73;;
55647;SDS011;45266;48.756;9.246;2024-02-04T05:25:19;0.70;;;0.67;;
55647;SDS011;45266;48.756;9.246;2024-02-04T05:30:21;0.80;;;0.73;;
55647;SDS011;45266;48.756;9.246;2024-02-04T05:35:22;0.70;;;0.67;;
55647;SDS011;45266;48.756;9.246;2024-02-04T05:40:24;0.70;;;0.70;;
55647;SDS011;45266;48.756;9.246;2024-02-04T05:45:26;1.43;;;0.90;;
55647;SDS011;45266;48.756;9.246;2024-02-04T05:50:29;2.30;;;0.70;;
55647;SDS011;45266;48.756;9.246;2024-02-04T05:55:31;1.30;;;1.20;;
55647;SDS011;45266;48.756;9.246;2024-02-04T06:00:33;2.57;;;0.70;;
55647;SDS011;45266;48.756;9.246;2024-02-04T06:05:35;1.03;;;0.70;;
55647;SDS011;45266;48.756;9.246;2024-02-04T06:10:36;3.97;;;2.17;;
55647;SDS011;45266;48.756;9.246;2024-02-04T06:15:38;1.80;;;1.33;;
55647;SDS011;45266;48.756;9.246;2024-02-04T06:20:40;1.90;;;0.60;;
55647;SDS011;45266;48.756;9.246;2024-02-04T06:25:42;0.60;;;0.57;;
55647;SDS011;45266;48.756;9.246;2024-02-04T06:30:44;0.50;;;0.47;;
55647;SDS011;45266;48.756;9.246;2024-02-04T06:35:46;0.50;;;0.40;;
55647;SDS011;45266;48.756;9.246;2024-02-04T06:40:47;0.90;;;0.63;;
55647;SDS011;45266;48.756;9.246;2024-02-04T06:45:49;2.93;;;0.60;;
55647;SDS011;45266;48.756;9.246;2024-02-04T06:50:51;0.83;;;0.70;;
55647;SDS011;45266;48.756;9.246;2024-02-04T06:55:53;0.73;;;0.73;;
55647;SDS011;45266;48.756;9.246;2024-02-04T07:00:55;1.33;;;0.60;;
55647;SDS011;45266;48.756;9.246;2024-02-04T07:05:57;0.67;;;0.60;;
55647;SDS011;45266;48.756;9.246;2024-02-04T07:11:00;1.13;;;0.87;;
55647;SDS011;45266;48.756;9.246;2024-02-04T07:16:02;0.80;;;0.67;;
55647;SDS011;45266;48.756;9.246;2024-02-04T07:21:04;0.80;;;0.80;;
55647;SDS011;45266;48.756;9.246;2024-02-04T07:26:07;0.73;;;0.57;;
55647;SDS011;45266;48.756;9.246;2024-02-04T07:31:10;1.43;;;0.90;;
55647;SDS011;45266;48.756;9.246;2024-02-04T07:36:12;0.60;;;0.60;;
55647;SDS011;45266;48.756;9.246;2024-02-04T07:41:14;0.77;;;0.77;;
55647;SDS011;45266;48.756;9.246;2024-02-04T07:46:17;0.53;;;0.53;;
55647;SDS011;45266;48.756;9.246;2024-02-04T07:51:19;0.57;;;0.57;;
55647;SDS011;45266;48.756;9.246;2024-02-04T07:56:22;14.50;;;5.00;;
55647;SDS011;45266;48.756;9.246;2024-02-04T08:01:24;1.30;;;0.97;;
55647;SDS011;45266;48.756;9.246;2024-02-04T08:06:26;1.20;;;0.80;;
55647;SDS011;45266;48.756;9.246;2024-02-04T08:11:28;1.40;;;1.17;;
55647;SDS011;45266;48.756;9.246;2024-02-04T08:16:30;5.70;;;3.33;;
55647;SDS011;45266;48.756;9.246;2024-02-04T08:21:32;2.13;;;0.67;;
55647;SDS011;45266;48.756;9.246;2024-02-04T08:26:35;1.93;;;0.80;;
55647;SDS011;45266;48.756;9.246;2024-02-04T08:31:37;1.33;;;0.70;;
55647;SDS011;45266;48.756;9.246;2024-02-04T08:36:39;0.80;;;0.80;;
55647;SDS011;45266;48.756;9.246;2024-02-04T08:41:41;1.10;;;0.83;;
55647;SDS011;45266;48.756;9.246;2024-02-04T08:46:43;1.03;;;0.77;;
55647;SDS011;45266;48.756;9.246;2024-02-04T08:51:46;1.07;;;0.63;;
55647;SDS011;45266;48.756;9.246;2024-02-04T08:56:49;0.67;;;0.60;;
55647;SDS011;45266;48.756;9.246;2024-02-04T09:01:51;0.87;;;0.63;;
55647;SDS011;45266;48.756;9.246;2024-02-04T09:06:54;0.50;;;0.40;;
55647;SDS011;45266;48.756;9.246;2024-02-04T09:11:56;0.90;;;0.60;;
55647;SDS011;45266;48.756;9.246;2024-02-04T09:16:58;0.60;;;0.50;;
55647;SDS011;45266;48.756;9.246;2024-02-04T09:22:03;0.80;;;0.80;;
55647;SDS011;45266;48.756;9.246;2024-02-04T09:27:05;0.70;;;0.50;;
55647;SDS011;45266;48.756;9.246;2024-02-04T09:32:07;1.07;;;0.47;;
55647;SDS011;45266;48.756;9.246;2024-02-04T09:37:10;0.80;;;0.50;;
55647;SDS011;45266;48.756;9.246;2024-02-04T09:42:15;0.60;;;0.40;;
55647;SDS011;45266;48.756;9.246;2024-02-04T09:47:22;0.80;;;0.60;;
55647;SDS011;45266;48.756;9.246;2024-02-04T09:52:28;0.70;;;0.60;;
55647;SDS011;45266;48.756;9.246;2024-02-04T09:57:33;0.70;;;0.60;;
55647;SDS011;45266;48.756;9.246;2024-02-04T10:02:36;0.40;;;0.40;;
55647;SDS011;45266;48.756;9.246;2024-02-04T10:07:39;0.50;;;0.40;;
55647;SDS011;45266;48.756;9.246;2024-02-04T10:12:42;0.60;;;0.40;;
55647;SDS011;45266;48.756;9.246;2024-02-04T10:17:45;0.60;;;0.40;;
55647;SDS011;45266;48.756;9.246;2024-02-04T10:22:48;0.87;;;0.50;;
55647;SDS011;45266;48.756;9.246;2024-02-04T10:27:51;0.50;;;0.40;;
55647;SDS011;45266;48.756;9.246;2024-02-04T10:32:54;0.50;;;0.40;;
55647;SDS011;45266;48.756;9.246;2024-02-04T10:37:56;0.90;;;0.60;;
55647;SDS011;45266;48.756;9.246;2024-02-04T10:43:00;0.70;;;0.60;;
55647;SDS011;45266;48.756;9.246;2024-02-04T10:48:06;1.10;;;0.70;;
55647;SDS011;45266;48.756;9.246;2024-02-04T10:53:09;0.60;;;0.50;;
55647;SDS011;45266;48.756;9.246;2024-02-04T10:58:18;0.70;;;0.50;;
55647;SDS011;45266;48.756;9.246;2024-02-04T11:03:21;1.57;;;0.60;;
55647;SDS011;45266;48.756;9.246;2024-02-04T11:08:24;0.50;;;0.50;;
55647;SDS011;45266;48.756;9.246;2024-02-04T11:13:28;0.70;;;0.40;;
55647;SDS011;45266;48.756;9.246;2024-02-04T11:18:37;0.67;;;0.40;;
55647;SDS011;45266;48.756;9.246;2024-02-04T11:29:22;0.50;;;0.30;;
55647;SDS011;45266;48.756;9.246;2024-02-04T11:34:24;1.43;;;0.50;;
55647;SDS011;45266;48.756;9.246;2024-02-04T11:39:27;1.43;;;0.47;;
55647;SDS011;45266;48.756;9.246;2024-02-04T11:44:30;0.93;;;0.33;;
55647;SDS011;45266;48.756;9.246;2024-02-04T11:49:32;1.20;;;0.87;;
55647;SDS011;45266;48.756;9.246;2024-02-04T11:54:35;0.50;;;0.40;;
55647;SDS011;45266;48.756;9.246;2024-02-04T11:59:37;0.50;;;0.30;;
55647;SDS011;45266;48.756;9.246;2024-02-04T12:04:40;0.50;;;0.30;;
55647;SDS011;45266;48.756;9.246;2024-02-04T12:09:42;0.40;;;0.30;;
55647;SDS011;45266;48.756;9.246;2024-02-04T12:14:45;0.50;;;0.30;;
55647;SDS011;45266;48.756;9.246;2024-02-04T12:19:49;0.60;;;0.40;;
55647;SDS011;45266;48.756;9.246;2024-02-04T12:24:52;0.70;;;0.30;;
55647;SDS011;45266;48.756;9.246;2024-02-04T12:29:54;0.50;;;0.40;;
55647;SDS011;45266;48.756;9.246;2024-02-04T12:34:56;0.50;;;0.33;;
55647;SDS011;45266;48.756;9.246;2024-02-04T12:39:58;0.60;;;0.30;;
55647;SDS011;45266;48.756;9.246;2024-02-04T12:45:01;0.63;;;0.50;;
55647;SDS011;45266;48.756;9.246;2024-02-04T12:50:03;0.83;;;0.60;;
55647;SDS011;45266;48.756;9.246;2024-02-04T12:55:07;0.60;;;0.37;;
55647;SDS011;45266;48.756;9.246;2024-02-04T13:00:09;0.90;;;0.70;;
55647;SDS011;45266;48.756;9.246;2024-02-04T13:05:21;0.50;;;0.47;;
55647;SDS011;45266;48.756;9.246;2024-02-04T13:10:25;0.53;;;0.40;;
55647;SDS011;45266;48.756;9.246;2024-02-04T13:15:28;0.50;;;0.40;;
55647;SDS011;45266;48.756;9.246;2024-02-04T13:20:31;0.40;;;0.33;;
55647;SDS011;45266;48.756;9.246;2024-02-04T13:25:33;0.60;;;0.40;;
55647;SDS011;45266;48.756;9.246;2024-02-04T13:30:36;0.70;;;0.70;;
55647;SDS011;45266;48.756;9.246;2024-02-04T13:35:38;1.33;;;0.77;;
55647;SDS011;45266;48.756;9.246;2024-02-04T13:40:40;0.70;;;0.50;;
55647;SDS011;45266;48.756;9.246;2024-02-04T13:45:43;0.50;;;0.40;;
55647;SDS011;45266;48.756;9.246;2024-02-04T13:50:45;0.70;;;0.50;;
55647;SDS011;45266;48.756;9.246;2024-02-04T13:55:48;0.50;;;0.50;;
55647;SDS011;45266;48.756;9.246;2024-02-04T14:00:50;0.60;;;0.50;;
55647;SDS011;45266;48.756;9.246;2024-02-04T14:05:53;2.10;;;0.63;;
55647;SDS011;45266;48.756;9.246;2024-02-04T14:10:57;0.50;;;0.43;;
55647;SDS011;45266;48.756;9.246;2024-02-04T14:15:59;2.93;;;0.63;;
55647;SDS011;45266;48.756;9.246;2024-02-04T14:21:05;3.03;;;0.70;;
55647;SDS011;45266;48.756;9.246;2024-02-04T14:26:18;0.80;;;0.70;;
55647;SDS011;45266;48.756;9.246;2024-02-04T14:31:21;1.00;;;0.60;;
55647;SDS011;45266;48.756;9.246;2024-02-04T14:36:23;0.70;;;0.70;;
55647;SDS011;45266;48.756;9.246;2024-02-04T14:41:26;1.03;;;0.60;;
55647;SDS011;45266;48.756;9.246;2024-02-04T14:46:28;0.50;;;0.40;;
55647;SDS011;45266;48.756;9.246;2024-02-04T14:51:30;1.80;;;0.70;;
55647;SDS011;45266;48.756;9.246;2024-02-04T14:56:36;0.80;;;0.50;;
55647;SDS011;45266;48.756;9.246;2024-02-04T15:01:44;0.77;;;0.67;;
55647;SDS011;45266;48.756;9.246;2024-02-04T15:06:47;0.70;;;0.60;;
55647;SDS011;45266;48.756;9.246;2024-02-04T15:11:50;1.10;;;0.67;;
55647;SDS011;45266;48.756;9.246;2024-02-04T15:16:53;2.77;;;1.53;;
55647;SDS011;45266;48.756;9.246;2024-02-04T15:21:58;1.70;;;0.70;;
55647;SDS011;45266;48.756;9.246;2024-02-04T15:27:00;0.60;;;0.60;;
55647;SDS011;45266;48.756;9.246;2024-02-04T15:32:06;2.00;;;0.50;;
55647;SDS011;45266;48.756;9.246;2024-02-04T15:37:09;0.80;;;0.63;;
55647;SDS011;45266;48.756;9.246;2024-02-04T15:42:11;0.60;;;0.60;;
55647;SDS011;45266;48.756;9.246;2024-02-04T15:47:15;1.23;;;0.67;;
55647;SDS011;45266;48.756;9.246;2024-02-04T15:52:17;0.90;;;0.60;;
55647;SDS011;45266;48.756;9.246;2024-02-04T15:57:20;1.17;;;0.60;;
55647;SDS011;45266;48.756;9.246;2024-02-04T16:02:26;0.80;;;0.70;;
55647;SDS011;45266;48.756;9.246;2024-02-04T16:07:28;1.33;;;1.03;;
55647;SDS011;45266;48.756;9.246;2024-02-04T16:12:31;0.77;;;0.70;;
55647;SDS011;45266;48.756;9.246;2024-02-04T16:17:33;0.80;;;0.63;;
55647;SDS011;45266;48.756;9.246;2024-02-04T16:22:39;0.50;;;0.40;;
55647;SDS011;45266;48.756;9.246;2024-02-04T16:27:41;1.43;;;0.90;;
55647;SDS011;45266;48.756;9.246;2024-02-04T16:32:46;1.10;;;0.93;;
55647;SDS011;45266;48.756;9.246;2024-02-04T16:37:48;1.03;;;0.70;;
55647;SDS011;45266;48.756;9.246;2024-02-04T16:42:50;1.87;;;1.00;;
55647;SDS011;45266;48.756;9.246;2024-02-04T16:47:53;1.27;;;1.17;;
55647;SDS011;45266;48.756;9.246;2024-02-04T16:52:55;1.83;;;1.07;;
55647;SDS011;45266;48.756;9.246;2024-02-04T16:57:56;2.30;;;0.87;;
55647;SDS011;45266;48.756;9.246;2024-02-04T17:02:58;1.43;;;0.83;;
55647;SDS011;45266;48.756;9.246;2024-02-04T17:08:00;2.00;;;1.80;;
55647;SDS011;45266;48.756;9.246;2024-02-04T17:13:02;1.00;;;0.90;;
55647;SDS011;45266;48.756;9.246;2024-02-04T17:18:05;0.70;;;0.70;;
55647;SDS011;45266;48.756;9.246;2024-02-04T17:23:10;2.50;;;0.60;;
55647;SDS011;45266;48.756;9.246;2024-02-04T17:28:14;1.17;;;1.07;;
55647;SDS011;45266;48.756;9.246;2024-02-04T17:33:16;1.80;;;1.27;;
55647;SDS011;45266;48.756;9.246;2024-02-04T17:38:19;1.73;;;1.10;;
55647;SDS011;45266;48.756;9.246;2024-02-04T17:43:21;1.00;;;0.90;;
55647;SDS011;45266;48.756;9.246;2024-02-04T17:48:22;2.23;;;0.90;;
55647;SDS011;45266;48.756;9.246;2024-02-04T17:53:24;1.33;;;1.20;;
55647;SDS011;45266;48.756;9.246;2024-02-04T17:58:26;1.70;;;1.60;;
55647;SDS011;45266;48.756;9.246;2024-02-04T18:03:28;2.40;;;1.83;;
55647;SDS011;45266;48.756;9.246;2024-02-04T18:08:35;1.97;;;1.20;;
55647;SDS011;45266;48.756;9.246;2024-02-04T18:13:37;2.90;;;1.67;;
55647;SDS011;45266;48.756;9.246;2024-02-04T18:18:39;1.50;;;1.40;;
55647;SDS011;45266;48.756;9.246;2024-02-04T18:23:42;0.80;;;0.80;;
55647;SDS011;45266;48.756;9.246;2024-02-04T18:28:44;1.73;;;1.40;;
55647;SDS011;45266;48.756;9.246;2024-02-04T18:33:45;2.13;;;1.27;;
55647;SDS011;45266;48.756;9.246;2024-02-04T18:38:50;2.20;;;1.20;;
55647;SDS011;45266;48.756;9.246;2024-02-04T18:43:53;4.90;;;1.30;;
55647;SDS011;45266;48.756;9.246;2024-02-04T18:48:55;6.97;;;1.50;;
55647;SDS011;45266;48.756;9.246;2024-02-04T18:54:00;5.40;;;2.07;;
55647;SDS011;45266;48.756;9.246;2024-02-04T18:59:01;1.63;;;1.30;;
55647;SDS011;45266;48.756;9.246;2024-02-04T19:04:03;1.30;;;1.20;;
55647;SDS011;45266;48.756;9.246;2024-02-04T19:09:06;3.00;;;2.30;;
55647;SDS011;45266;48.756;9.246;2024-02-04T19:14:09;1.33;;;1.23;;
55647;SDS011;45266;48.756;9.246;2024-02-04T19:19:12;2.87;;;2.30;;
55647;SDS011;45266;48.756;9.246;2024-02-04T19:24:15;4.50;;;2.97;;
55647;SDS011;45266;48.756;9.246;2024-02-04T19:29:18;3.97;;;3.10;;
55647;SDS011;45266;48.756;9.246;2024-02-04T19:34:20;3.17;;;2.77;;
55647;SDS011;45266;48.756;9.246;2024-02-04T19:39:22;5.03;;;3.70;;
55647;SDS011;45266;48.756;9.246;2024-02-04T19:44:24;3.40;;;2.73;;
55647;SDS011;45266;48.756;9.246;2024-02-04T19:49:26;3.80;;;3.23;;
55647;SDS011;45266;48.756;9.246;2024-02-04T19:54:31;4.83;;;3.23;;
55647;SDS011;45266;48.756;9.246;2024-02-04T19:59:33;5.90;;;3.23;;
55647;SDS011;45266;48.756;9.246;2024-02-04T20:04:34;6.27;;;3.53;;
55647;SDS011;45266;48.756;9.246;2024-02-04T20:09:37;2.83;;;2.50;;
55647;SDS011;45266;48.756;9.246;2024-02-04T20:14:39;7.10;;;4.17;;
55647;SDS011;45266;48.756;9.246;2024-02-04T20:19:42;4.80;;;2.87;;
55647;SDS011;45266;48.756;9.246;2024-02-04T20:24:44;3.97;;;2.93;;
55647;SDS011;45266;48.756;9.246;2024-02-04T20:29:46;4.73;;;2.57;;
55647;SDS011;45266;48.756;9.246;2024-02-04T20:34:48;4.07;;;3.10;;
55647;SDS011;45266;48.756;9.246;2024-02-04T20:39:50;3.00;;;2.70;;
55647;SDS011;45266;48.756;9.246;2024-02-04T20:44:52;3.83;;;2.70;;
55647;SDS011;45266;48.756;9.246;2024-02-04T20:49:54;2.90;;;2.50;;
55647;SDS011;45266;48.756;9.246;2024-02-04T20:54:56;3.73;;;2.93;;
55647;SDS011;45266;48.756;9.246;2024-02-04T20:59:58;3.63;;;2.60;;
55647;SDS011;45266;48.756;9.246;2024-02-04T21:04:59;4.97;;;3.17;;
55647;SDS011;45266;48.756;9.246;2024-02-04T21:10:02;4.33;;;2.93;;
55647;SDS011;45266;48.756;9.246;2024-02-04T21:15:06;5.93;;;3.63;;
55647;SDS011;45266;48.756;9.246;2024-02-04T21:20:09;4.60;;;2.93;;
55647;SDS011;45266;48.756;9.246;2024-02-04T21:25:12;7.70;;;4.63;;
55647;SDS011;45266;48.756;9.246;2024-02-04T21:30:14;6.33;;;4.67;;
55647;SDS011;45266;48.756;9.246;2024-02-04T21:35:16;6.20;;;3.23;;
55647;SDS011;45266;48.756;9.246;2024-02-04T21:40:20;7.63;;;4.20;;
55647;SDS011;45266;48.756;9.246;2024-02-04T21:45:23;5.83;;;3.43;;
55647;SDS011;45266;48.756;9.246;2024-02-04T21:50:25;5.60;;;3.40;;
55647;SDS011;45266;48.756;9.246;2024-02-04T21:55:27;2.73;;;2.47;;
55647;SDS011;45266;48.756;9.246;2024-02-04T22:00:29;2.60;;;1.97;;
55647;SDS011;45266;48.756;9.246;2024-02-04T22:05:32;2.67;;;1.70;;
55647;SDS011;45266;48.756;9.246;2024-02-04T22:10:35;3.23;;;2.10;;
55647;SDS011;45266;48.756;9.246;2024-02-04T22:15:37;4.53;;;2.67;;
55647;SDS011;45266;48.756;9.246;2024-02-04T22:20:39;3.87;;;2.30;;
55647;SDS011;45266;48.756;9.246;2024-02-04T22:25:41;2.37;;;2.17;;
55647;SDS011;45266;48.756;9.246;2024-02-04T22:30:43;2.37;;;2.03;;
55647;SDS011;45266;48.756;9.246;2024-02-04T22:35:47;2.83;;;2.00;;
55647;SDS011;45266;48.756;9.246;2024-02-04T22:40:49;2.80;;;2.03;;
55647;SDS011;45266;48.756;9.246;2024-02-04T22:45:51;1.77;;;1.50;;
55647;SDS011;45266;48.756;9.246;2024-02-04T22:50:53;2.30;;;1.80;;
55647;SDS011;45266;48.756;9.246;2024-02-04T22:55:54;2.43;;;2.23;;
55647;SDS011;45266;48.756;9.246;2024-02-04T23:00:57;2.10;;;1.73;;
55647;SDS011;45266;48.756;9.246;2024-02-04T23:05:59;3.30;;;2.43;;
55647;SDS011;45266;48.756;9.246;2024-02-04T23:11:01;2.50;;;1.63;;
55647;SDS011;45266;48.756;9.246;2024-02-04T23:16:03;3.90;;;1.87;;
55647;SDS011;45266;48.756;9.246;2024-02-04T23:21:06;2.20;;;1.80;;
55647;SDS011;45266;48.756;9.246;2024-02-04T23:26:08;5.70;;;2.70;;
55647;SDS011;45266;48.756;9.246;2024-02-04T23:31:10;3.87;;;2.20;;
55647;SDS011;45266;48.756;9.246;2024-02-04T23:36:12;8.47;;;2.67;;
55647;SDS011;45266;48.756;9.246;2024-02-04T23:41:14;4.03;;;1.97;;
55647;SDS011;45266;48.756;9.246;2024-02-04T23:46:17;2.50;;;2.30;;
55647;SDS011;45266;48.756;9.246;2024-02-04T23:51:19;2.50;;;2.17;;
55647;SDS011;45266;48.756;9.246;2024-02-04T23:56:21;7.70;;;2.03;;
